sensor_id;sensor_type;location;lat;lon;timestamp;temperature;humidity
4934;DHT22;2482;49.154;8.254;2023-09-18T00:00:47;19.20;99.90
4934;DHT22;2482;49.154;8.254;2023-09-18T00:03:17;19.10;99.90
4934;DHT22;2482;49.154;8.254;2023-09-18T00:05:47;19.00;99.90
4934;DHT22;2482;49.154;8.254;2023-09-18T00:08:18;19.10;99.90
4934;DHT22;2482;49.154;8.254;2023-09-18T00:10:52;19.00;99.90
4934;DHT22;2482;49.154;8.254;2023-09-18T00:13:21;19.00;99.90
4934;DHT22;2482;49.154;8.254;2023-09-18T00:15:48;19.10;99.90
4934;DHT22;2482;49.154;8.254;2023-09-18T00:18:16;19.10;99.90
4934;DHT22;2482;49.154;8.254;2023-09-18T00:20:44;19.20;99.90
4934;DHT22;2482;49.154;8.254;2023-09-18T00:23:12;19.30;99.90
4934;DHT22;2482;49.154;8.254;2023-09-18T00:25:40;19.20;99.90
4934;DHT22;2482;49.154;8.254;2023-09-18T00:28:10;19.20;99.90
4934;DHT22;2482;49.154;8.254;2023-09-18T00:30:39;19.20;99.90
4934;DHT22;2482;49.154;8.254;2023-09-18T00:33:09;19.10;99.90
4934;DHT22;2482;49.154;8.254;2023-09-18T00:35:36;19.10;99.90
4934;DHT22;2482;49.154;8.254;2023-09-18T00:38:03;19.20;99.90
4934;DHT22;2482;49.154;8.254;2023-09-18T00:40:30;19.40;99.90
4934;DHT22;2482;49.154;8.254;2023-09-18T00:42:57;19.40;99.90
4934;DHT22;2482;49.154;8.254;2023-09-18T00:45:24;19.50;99.90
4934;DHT22;2482;49.154;8.254;2023-09-18T00:47:52;19.50;99.90
4934;DHT22;2482;49.154;8.254;2023-09-18T00:50:19;19.80;99.90
4934;DHT22;2482;49.154;8.254;2023-09-18T00:52:46;19.80;99.90
4934;DHT22;2482;49.154;8.254;2023-09-18T00:55:13;19.80;99.90
4934;DHT22;2482;49.154;8.254;2023-09-18T00:57:40;20.00;99.90
4934;DHT22;2482;49.154;8.254;2023-09-18T01:00:08;19.90;99.90
4934;DHT22;2482;49.154;8.254;2023-09-18T01:02:35;19.60;99.90
4934;DHT22;2482;49.154;8.254;2023-09-18T01:05:03;19.50;99.90
4934;DHT22;2482;49.154;8.254;2023-09-18T01:07:30;19.20;99.90
4934;DHT22;2482;49.154;8.254;2023-09-18T01:09:57;19.10;99.90
4934;DHT22;2482;49.154;8.254;2023-09-18T01:12:38;19.30;99.90
4934;DHT22;2482;49.154;8.254;2023-09-18T01:15:26;19.30;99.90
4934;DHT22;2482;49.154;8.254;2023-09-18T01:17:56;19.60;99.90
4934;DHT22;2482;49.154;8.254;2023-09-18T01:20:23;19.80;99.90
4934;DHT22;2482;49.154;8.254;2023-09-18T01:22:50;19.90;99.90
4934;DHT22;2482;49.154;8.254;2023-09-18T01:25:17;19.70;99.90
4934;DHT22;2482;49.154;8.254;2023-09-18T01:27:44;19.80;99.90
4934;DHT22;2482;49.154;8.254;2023-09-18T01:30:11;19.90;99.90
4934;DHT22;2482;49.154;8.254;2023-09-18T01:32:39;20.00;99.90
4934;DHT22;2482;49.154;8.254;2023-09-18T01:35:08;20.00;99.90
4934;DHT22;2482;49.154;8.254;2023-09-18T01:37:37;19.70;99.90
4934;DHT22;2482;49.154;8.254;2023-09-18T01:40:06;19.60;99.90
4934;DHT22;2482;49.154;8.254;2023-09-18T01:42:34;19.70;99.90
4934;DHT22;2482;49.154;8.254;2023-09-18T01:45:02;19.60;99.90
4934;DHT22;2482;49.154;8.254;2023-09-18T01:47:31;19.60;99.90
4934;DHT22;2482;49.154;8.254;2023-09-18T01:50:03;19.60;99.90
4934;DHT22;2482;49.154;8.254;2023-09-18T01:52:33;19.70;99.90
4934;DHT22;2482;49.154;8.254;2023-09-18T01:55:02;19.60;99.90
4934;DHT22;2482;49.154;8.254;2023-09-18T01:57:31;19.80;99.90
4934;DHT22;2482;49.154;8.254;2023-09-18T01:59:59;19.70;99.90
4934;DHT22;2482;49.154;8.254;2023-09-18T02:02:27;19.80;99.90
4934;DHT22;2482;49.154;8.254;2023-09-18T02:05:14;19.80;99.90
4934;DHT22;2482;49.154;8.254;2023-09-18T02:07:41;19.90;99.90
4934;DHT22;2482;49.154;8.254;2023-09-18T02:10:08;19.80;99.90
4934;DHT22;2482;49.154;8.254;2023-09-18T02:12:36;19.90;99.90
4934;DHT22;2482;49.154;8.254;2023-09-18T02:15:03;20.10;99.90
4934;DHT22;2482;49.154;8.254;2023-09-18T02:17:33;20.00;99.90
4934;DHT22;2482;49.154;8.254;2023-09-18T02:20:00;19.80;99.90
4934;DHT22;2482;49.154;8.254;2023-09-18T02:22:34;19.70;99.90
4934;DHT22;2482;49.154;8.254;2023-09-18T02:25:01;19.80;99.90
4934;DHT22;2482;49.154;8.254;2023-09-18T02:27:28;19.80;99.90
4934;DHT22;2482;49.154;8.254;2023-09-18T02:29:56;19.80;99.90
4934;DHT22;2482;49.154;8.254;2023-09-18T02:32:23;19.80;99.90
4934;DHT22;2482;49.154;8.254;2023-09-18T02:34:50;19.70;99.90
4934;DHT22;2482;49.154;8.254;2023-09-18T02:37:17;19.60;99.90
4934;DHT22;2482;49.154;8.254;2023-09-18T02:39:44;19.80;99.90
4934;DHT22;2482;49.154;8.254;2023-09-18T02:42:11;20.00;99.90
4934;DHT22;2482;49.154;8.254;2023-09-18T02:44:38;20.10;99.90
4934;DHT22;2482;49.154;8.254;2023-09-18T02:47:05;20.30;99.90
4934;DHT22;2482;49.154;8.254;2023-09-18T02:49:32;20.40;99.90
4934;DHT22;2482;49.154;8.254;2023-09-18T02:51:59;20.30;99.90
4934;DHT22;2482;49.154;8.254;2023-09-18T02:54:26;20.20;99.90
4934;DHT22;2482;49.154;8.254;2023-09-18T02:56:54;20.10;99.90
4934;DHT22;2482;49.154;8.254;2023-09-18T02:59:20;20.10;99.90
4934;DHT22;2482;49.154;8.254;2023-09-18T03:01:48;20.30;99.90
4934;DHT22;2482;49.154;8.254;2023-09-18T03:04:15;20.30;99.90
4934;DHT22;2482;49.154;8.254;2023-09-18T03:06:42;20.20;99.90
4934;DHT22;2482;49.154;8.254;2023-09-18T03:09:09;20.10;99.90
4934;DHT22;2482;49.154;8.254;2023-09-18T03:11:36;20.10;99.90
4934;DHT22;2482;49.154;8.254;2023-09-18T03:14:03;20.10;99.90
4934;DHT22;2482;49.154;8.254;2023-09-18T03:16:30;20.10;99.90
4934;DHT22;2482;49.154;8.254;2023-09-18T03:18:59;20.10;99.90
4934;DHT22;2482;49.154;8.254;2023-09-18T03:21:26;20.00;99.90
4934;DHT22;2482;49.154;8.254;2023-09-18T03:23:53;20.10;99.90
4934;DHT22;2482;49.154;8.254;2023-09-18T03:26:20;20.10;99.90
4934;DHT22;2482;49.154;8.254;2023-09-18T03:28:47;20.00;99.90
4934;DHT22;2482;49.154;8.254;2023-09-18T03:31:14;20.10;99.90
4934;DHT22;2482;49.154;8.254;2023-09-18T03:33:41;20.10;99.90
4934;DHT22;2482;49.154;8.254;2023-09-18T03:36:08;20.10;99.90
4934;DHT22;2482;49.154;8.254;2023-09-18T03:38:38;20.10;99.90
4934;DHT22;2482;49.154;8.254;2023-09-18T03:41:05;20.10;99.90
4934;DHT22;2482;49.154;8.254;2023-09-18T03:43:32;20.10;99.90
4934;DHT22;2482;49.154;8.254;2023-09-18T03:46:06;20.00;99.90
4934;DHT22;2482;49.154;8.254;2023-09-18T03:48:34;20.00;99.90
4934;DHT22;2482;49.154;8.254;2023-09-18T03:51:05;20.10;99.90
4934;DHT22;2482;49.154;8.254;2023-09-18T03:53:33;20.10;99.90
4934;DHT22;2482;49.154;8.254;2023-09-18T03:56:00;20.20;99.90
4934;DHT22;2482;49.154;8.254;2023-09-18T03:58:28;20.10;99.90
4934;DHT22;2482;49.154;8.254;2023-09-18T04:00:55;20.10;99.90
4934;DHT22;2482;49.154;8.254;2023-09-18T04:03:23;20.10;99.90
4934;DHT22;2482;49.154;8.254;2023-09-18T04:05:50;20.00;99.90
4934;DHT22;2482;49.154;8.254;2023-09-18T04:08:17;20.00;99.90
4934;DHT22;2482;49.154;8.254;2023-09-18T04:10:44;20.00;99.90
4934;DHT22;2482;49.154;8.254;2023-09-18T04:13:11;20.00;99.90
4934;DHT22;2482;49.154;8.254;2023-09-18T04:15:39;19.90;99.90
4934;DHT22;2482;49.154;8.254;2023-09-18T04:18:07;19.90;99.90
4934;DHT22;2482;49.154;8.254;2023-09-18T04:20:34;19.80;99.90
4934;DHT22;2482;49.154;8.254;2023-09-18T04:23:22;19.90;99.90
4934;DHT22;2482;49.154;8.254;2023-09-18T04:25:52;19.80;99.90
4934;DHT22;2482;49.154;8.254;2023-09-18T04:28:21;19.80;99.90
4934;DHT22;2482;49.154;8.254;2023-09-18T04:30:49;19.80;99.90
4934;DHT22;2482;49.154;8.254;2023-09-18T04:33:16;19.80;99.90
4934;DHT22;2482;49.154;8.254;2023-09-18T04:35:44;19.80;99.90
4934;DHT22;2482;49.154;8.254;2023-09-18T04:38:11;19.80;99.90
4934;DHT22;2482;49.154;8.254;2023-09-18T04:40:38;19.70;99.90
4934;DHT22;2482;49.154;8.254;2023-09-18T04:43:08;19.80;99.90
4934;DHT22;2482;49.154;8.254;2023-09-18T04:45:35;19.70;99.90
4934;DHT22;2482;49.154;8.254;2023-09-18T04:48:02;19.60;99.90
4934;DHT22;2482;49.154;8.254;2023-09-18T04:50:29;19.50;99.90
4934;DHT22;2482;49.154;8.254;2023-09-18T04:52:57;19.60;99.90
4934;DHT22;2482;49.154;8.254;2023-09-18T04:55:24;19.60;99.90
4934;DHT22;2482;49.154;8.254;2023-09-18T04:57:52;19.50;99.90
4934;DHT22;2482;49.154;8.254;2023-09-18T05:00:19;19.70;99.90
4934;DHT22;2482;49.154;8.254;2023-09-18T05:02:50;19.60;99.90
4934;DHT22;2482;49.154;8.254;2023-09-18T05:05:18;19.40;99.90
4934;DHT22;2482;49.154;8.254;2023-09-18T05:07:46;19.50;99.90
4934;DHT22;2482;49.154;8.254;2023-09-18T05:10:13;19.40;99.90
4934;DHT22;2482;49.154;8.254;2023-09-18T05:12:40;19.30;99.90
4934;DHT22;2482;49.154;8.254;2023-09-18T05:15:08;19.40;99.90
4934;DHT22;2482;49.154;8.254;2023-09-18T05:17:46;19.40;99.90
4934;DHT22;2482;49.154;8.254;2023-09-18T05:20:16;19.30;99.90
4934;DHT22;2482;49.154;8.254;2023-09-18T05:22:45;19.10;99.90
4934;DHT22;2482;49.154;8.254;2023-09-18T05:25:12;19.10;99.90
4934;DHT22;2482;49.154;8.254;2023-09-18T05:27:42;19.20;99.90
4934;DHT22;2482;49.154;8.254;2023-09-18T05:30:19;19.10;99.90
4934;DHT22;2482;49.154;8.254;2023-09-18T05:32:48;19.00;99.90
4934;DHT22;2482;49.154;8.254;2023-09-18T05:35:15;18.90;99.90
4934;DHT22;2482;49.154;8.254;2023-09-18T05:37:44;18.80;99.90
4934;DHT22;2482;49.154;8.254;2023-09-18T05:40:12;18.70;99.90
4934;DHT22;2482;49.154;8.254;2023-09-18T05:42:41;18.70;99.90
4934;DHT22;2482;49.154;8.254;2023-09-18T05:45:11;18.90;99.90
4934;DHT22;2482;49.154;8.254;2023-09-18T05:47:42;19.10;99.90
4934;DHT22;2482;49.154;8.254;2023-09-18T05:50:11;19.10;99.90
4934;DHT22;2482;49.154;8.254;2023-09-18T05:52:43;19.10;99.90
4934;DHT22;2482;49.154;8.254;2023-09-18T05:55:11;19.30;99.90
4934;DHT22;2482;49.154;8.254;2023-09-18T05:57:39;19.40;99.90
4934;DHT22;2482;49.154;8.254;2023-09-18T06:00:06;19.50;99.90
4934;DHT22;2482;49.154;8.254;2023-09-18T06:02:34;19.50;99.90
4934;DHT22;2482;49.154;8.254;2023-09-18T06:05:01;19.40;99.90
4934;DHT22;2482;49.154;8.254;2023-09-18T06:07:29;19.50;99.90
4934;DHT22;2482;49.154;8.254;2023-09-18T06:10:00;19.50;99.90
4934;DHT22;2482;49.154;8.254;2023-09-18T06:12:27;19.50;99.90
4934;DHT22;2482;49.154;8.254;2023-09-18T06:14:54;19.60;99.90
4934;DHT22;2482;49.154;8.254;2023-09-18T06:17:21;19.50;99.90
4934;DHT22;2482;49.154;8.254;2023-09-18T06:19:48;19.50;99.90
4934;DHT22;2482;49.154;8.254;2023-09-18T06:22:15;19.50;99.90
4934;DHT22;2482;49.154;8.254;2023-09-18T06:24:42;19.50;99.90
4934;DHT22;2482;49.154;8.254;2023-09-18T06:27:09;19.50;99.90
4934;DHT22;2482;49.154;8.254;2023-09-18T06:29:37;19.50;99.90
4934;DHT22;2482;49.154;8.254;2023-09-18T06:32:06;19.60;99.90
4934;DHT22;2482;49.154;8.254;2023-09-18T06:34:33;19.60;99.90
4934;DHT22;2482;49.154;8.254;2023-09-18T06:37:00;19.50;99.90
4934;DHT22;2482;49.154;8.254;2023-09-18T06:39:27;19.50;99.90
4934;DHT22;2482;49.154;8.254;2023-09-18T06:41:54;19.60;99.90
4934;DHT22;2482;49.154;8.254;2023-09-18T06:44:21;19.60;99.90
4934;DHT22;2482;49.154;8.254;2023-09-18T06:46:50;19.60;99.90
4934;DHT22;2482;49.154;8.254;2023-09-18T06:49:17;19.60;99.90
4934;DHT22;2482;49.154;8.254;2023-09-18T06:51:46;19.70;99.90
4934;DHT22;2482;49.154;8.254;2023-09-18T06:54:13;19.70;99.90
4934;DHT22;2482;49.154;8.254;2023-09-18T06:56:41;19.70;99.90
4934;DHT22;2482;49.154;8.254;2023-09-18T06:59:08;19.70;99.90
4934;DHT22;2482;49.154;8.254;2023-09-18T07:01:35;19.70;99.90
4934;DHT22;2482;49.154;8.254;2023-09-18T07:04:02;19.70;99.90
4934;DHT22;2482;49.154;8.254;2023-09-18T07:06:31;19.80;99.90
4934;DHT22;2482;49.154;8.254;2023-09-18T07:08:58;19.80;99.90
4934;DHT22;2482;49.154;8.254;2023-09-18T07:11:26;19.80;99.90
4934;DHT22;2482;49.154;8.254;2023-09-18T07:13:53;19.90;99.90
4934;DHT22;2482;49.154;8.254;2023-09-18T07:16:20;19.90;99.90
4934;DHT22;2482;49.154;8.254;2023-09-18T07:18:47;20.00;99.90
4934;DHT22;2482;49.154;8.254;2023-09-18T07:21:14;20.10;99.90
4934;DHT22;2482;49.154;8.254;2023-09-18T07:23:41;20.10;99.90
4934;DHT22;2482;49.154;8.254;2023-09-18T07:26:08;20.10;99.90
4934;DHT22;2482;49.154;8.254;2023-09-18T07:28:35;20.20;99.90
4934;DHT22;2482;49.154;8.254;2023-09-18T07:31:06;20.20;99.90
4934;DHT22;2482;49.154;8.254;2023-09-18T07:33:35;20.20;99.90
4934;DHT22;2482;49.154;8.254;2023-09-18T07:36:02;20.20;99.90
4934;DHT22;2482;49.154;8.254;2023-09-18T07:38:30;20.20;99.90
4934;DHT22;2482;49.154;8.254;2023-09-18T07:40:58;20.20;99.90
4934;DHT22;2482;49.154;8.254;2023-09-18T07:43:25;20.20;99.90
4934;DHT22;2482;49.154;8.254;2023-09-18T07:45:53;20.20;99.90
4934;DHT22;2482;49.154;8.254;2023-09-18T07:48:22;20.20;99.90
4934;DHT22;2482;49.154;8.254;2023-09-18T07:50:49;20.20;99.90
4934;DHT22;2482;49.154;8.254;2023-09-18T07:53:18;20.30;99.90
4934;DHT22;2482;49.154;8.254;2023-09-18T07:55:47;20.30;99.90
4934;DHT22;2482;49.154;8.254;2023-09-18T07:58:15;20.30;99.90
4934;DHT22;2482;49.154;8.254;2023-09-18T08:00:42;20.30;99.90
4934;DHT22;2482;49.154;8.254;2023-09-18T08:03:09;20.30;99.90
4934;DHT22;2482;49.154;8.254;2023-09-18T08:05:37;20.30;99.90
4934;DHT22;2482;49.154;8.254;2023-09-18T08:08:04;20.30;99.90
4934;DHT22;2482;49.154;8.254;2023-09-18T08:10:32;20.30;99.90
4934;DHT22;2482;49.154;8.254;2023-09-18T08:12:59;20.30;99.90
4934;DHT22;2482;49.154;8.254;2023-09-18T08:15:26;20.40;99.90
4934;DHT22;2482;49.154;8.254;2023-09-18T08:17:54;20.40;99.90
4934;DHT22;2482;49.154;8.254;2023-09-18T08:20:22;20.40;99.90
4934;DHT22;2482;49.154;8.254;2023-09-18T08:22:49;20.50;99.90
4934;DHT22;2482;49.154;8.254;2023-09-18T08:25:17;20.50;99.90
4934;DHT22;2482;49.154;8.254;2023-09-18T08:27:44;20.60;99.90
4934;DHT22;2482;49.154;8.254;2023-09-18T08:30:13;20.50;99.90
4934;DHT22;2482;49.154;8.254;2023-09-18T08:32:41;20.50;99.90
4934;DHT22;2482;49.154;8.254;2023-09-18T08:35:09;20.60;99.90
4934;DHT22;2482;49.154;8.254;2023-09-18T08:37:36;20.60;99.90
4934;DHT22;2482;49.154;8.254;2023-09-18T08:40:03;20.60;99.90
4934;DHT22;2482;49.154;8.254;2023-09-18T08:42:44;20.60;99.90
4934;DHT22;2482;49.154;8.254;2023-09-18T08:45:22;20.60;99.90
4934;DHT22;2482;49.154;8.254;2023-09-18T08:47:51;20.70;99.90
4934;DHT22;2482;49.154;8.254;2023-09-18T08:50:20;20.80;99.90
4934;DHT22;2482;49.154;8.254;2023-09-18T08:52:49;20.70;99.90
4934;DHT22;2482;49.154;8.254;2023-09-18T08:55:17;20.80;99.90
4934;DHT22;2482;49.154;8.254;2023-09-18T08:57:44;20.80;99.90
4934;DHT22;2482;49.154;8.254;2023-09-18T09:00:13;20.70;99.90
4934;DHT22;2482;49.154;8.254;2023-09-18T09:02:44;20.70;99.90
4934;DHT22;2482;49.154;8.254;2023-09-18T09:05:11;20.80;99.90
4934;DHT22;2482;49.154;8.254;2023-09-18T09:07:39;20.80;99.90
4934;DHT22;2482;49.154;8.254;2023-09-18T09:10:06;20.80;99.90
4934;DHT22;2482;49.154;8.254;2023-09-18T09:12:53;20.80;99.90
4934;DHT22;2482;49.154;8.254;2023-09-18T09:15:27;20.90;99.90
4934;DHT22;2482;49.154;8.254;2023-09-18T09:18:06;20.80;99.90
4934;DHT22;2482;49.154;8.254;2023-09-18T09:20:36;20.70;99.90
4934;DHT22;2482;49.154;8.254;2023-09-18T09:23:05;20.80;99.90
4934;DHT22;2482;49.154;8.254;2023-09-18T09:25:35;21.00;99.90
4934;DHT22;2482;49.154;8.254;2023-09-18T09:28:04;20.90;99.90
4934;DHT22;2482;49.154;8.254;2023-09-18T09:30:34;20.80;99.90
4934;DHT22;2482;49.154;8.254;2023-09-18T09:33:05;20.80;99.90
4934;DHT22;2482;49.154;8.254;2023-09-18T09:35:36;20.80;99.90
4934;DHT22;2482;49.154;8.254;2023-09-18T09:38:12;20.80;99.90
4934;DHT22;2482;49.154;8.254;2023-09-18T09:40:43;20.90;99.90
4934;DHT22;2482;49.154;8.254;2023-09-18T09:43:12;20.80;99.90
4934;DHT22;2482;49.154;8.254;2023-09-18T09:45:46;20.80;99.90
4934;DHT22;2482;49.154;8.254;2023-09-18T09:48:13;20.90;99.90
4934;DHT22;2482;49.154;8.254;2023-09-18T09:50:45;20.90;99.90
4934;DHT22;2482;49.154;8.254;2023-09-18T09:53:16;21.00;99.90
4934;DHT22;2482;49.154;8.254;2023-09-18T09:55:44;21.00;99.90
4934;DHT22;2482;49.154;8.254;2023-09-18T09:58:11;21.30;99.90
4934;DHT22;2482;49.154;8.254;2023-09-18T10:00:46;21.30;99.90
4934;DHT22;2482;49.154;8.254;2023-09-18T10:03:17;21.30;99.90
4934;DHT22;2482;49.154;8.254;2023-09-18T10:05:47;21.40;99.90
4934;DHT22;2482;49.154;8.254;2023-09-18T10:08:23;21.40;99.90
4934;DHT22;2482;49.154;8.254;2023-09-18T10:10:55;21.30;99.90
4934;DHT22;2482;49.154;8.254;2023-09-18T10:13:40;21.20;99.90
4934;DHT22;2482;49.154;8.254;2023-09-18T10:16:14;21.40;99.90
4934;DHT22;2482;49.154;8.254;2023-09-18T10:18:55;21.40;99.90
4934;DHT22;2482;49.154;8.254;2023-09-18T10:21:47;21.40;99.90
4934;DHT22;2482;49.154;8.254;2023-09-18T10:24:37;21.50;99.90
4934;DHT22;2482;49.154;8.254;2023-09-18T10:27:08;21.60;99.90
4934;DHT22;2482;49.154;8.254;2023-09-18T10:29:38;21.80;99.90
4934;DHT22;2482;49.154;8.254;2023-09-18T10:32:08;21.80;99.90
4934;DHT22;2482;49.154;8.254;2023-09-18T10:34:35;21.90;99.90
4934;DHT22;2482;49.154;8.254;2023-09-18T10:37:03;22.00;99.90
4934;DHT22;2482;49.154;8.254;2023-09-18T10:39:36;22.20;99.90
4934;DHT22;2482;49.154;8.254;2023-09-18T10:42:04;22.30;99.90
4934;DHT22;2482;49.154;8.254;2023-09-18T10:44:34;22.40;99.90
4934;DHT22;2482;49.154;8.254;2023-09-18T10:47:03;22.60;99.90
4934;DHT22;2482;49.154;8.254;2023-09-18T10:49:35;22.80;99.90
4934;DHT22;2482;49.154;8.254;2023-09-18T10:52:03;22.90;99.90
4934;DHT22;2482;49.154;8.254;2023-09-18T10:54:32;22.80;99.90
4934;DHT22;2482;49.154;8.254;2023-09-18T10:57:00;22.60;99.90
4934;DHT22;2482;49.154;8.254;2023-09-18T10:59:28;22.70;99.90
4934;DHT22;2482;49.154;8.254;2023-09-18T11:02:02;22.60;99.90
4934;DHT22;2482;49.154;8.254;2023-09-18T11:04:33;22.60;99.90
4934;DHT22;2482;49.154;8.254;2023-09-18T11:07:03;22.60;99.90
4934;DHT22;2482;49.154;8.254;2023-09-18T11:09:41;22.70;99.90
4934;DHT22;2482;49.154;8.254;2023-09-18T11:12:11;22.80;99.90
4934;DHT22;2482;49.154;8.254;2023-09-18T11:17:43;23.00;99.90
4934;DHT22;2482;49.154;8.254;2023-09-18T11:20:23;23.00;99.90
4934;DHT22;2482;49.154;8.254;2023-09-18T11:22:56;22.90;99.90
4934;DHT22;2482;49.154;8.254;2023-09-18T11:25:35;22.90;99.90
4934;DHT22;2482;49.154;8.254;2023-09-18T11:28:13;22.80;99.90
4934;DHT22;2482;49.154;8.254;2023-09-18T11:30:55;23.00;99.90
4934;DHT22;2482;49.154;8.254;2023-09-18T11:33:37;23.30;99.90
4934;DHT22;2482;49.154;8.254;2023-09-18T11:36:28;23.40;99.90
4934;DHT22;2482;49.154;8.254;2023-09-18T11:38:59;23.70;99.90
4934;DHT22;2482;49.154;8.254;2023-09-18T11:41:35;23.70;99.90
4934;DHT22;2482;49.154;8.254;2023-09-18T11:46:45;23.60;99.90
4934;DHT22;2482;49.154;8.254;2023-09-18T11:49:19;23.70;99.90
4934;DHT22;2482;49.154;8.254;2023-09-18T11:51:50;23.70;99.90
4934;DHT22;2482;49.154;8.254;2023-09-18T11:54:18;23.70;99.90
4934;DHT22;2482;49.154;8.254;2023-09-18T11:56:45;23.90;99.90
4934;DHT22;2482;49.154;8.254;2023-09-18T11:59:13;24.00;99.90
4934;DHT22;2482;49.154;8.254;2023-09-18T12:01:40;24.00;99.90
4934;DHT22;2482;49.154;8.254;2023-09-18T12:04:07;24.20;99.90
4934;DHT22;2482;49.154;8.254;2023-09-18T12:06:36;23.80;99.90
4934;DHT22;2482;49.154;8.254;2023-09-18T12:09:05;23.70;99.90
4934;DHT22;2482;49.154;8.254;2023-09-18T12:11:33;24.00;99.90
4934;DHT22;2482;49.154;8.254;2023-09-18T12:14:06;24.00;99.90
4934;DHT22;2482;49.154;8.254;2023-09-18T12:16:40;24.20;99.90
4934;DHT22;2482;49.154;8.254;2023-09-18T12:19:07;24.20;99.90
4934;DHT22;2482;49.154;8.254;2023-09-18T12:21:41;24.10;99.90
4934;DHT22;2482;49.154;8.254;2023-09-18T12:24:22;24.30;99.90
4934;DHT22;2482;49.154;8.254;2023-09-18T12:26:50;24.50;99.90
4934;DHT22;2482;49.154;8.254;2023-09-18T12:29:22;24.50;99.90
4934;DHT22;2482;49.154;8.254;2023-09-18T12:31:49;24.30;99.90
4934;DHT22;2482;49.154;8.254;2023-09-18T12:34:20;24.20;99.90
4934;DHT22;2482;49.154;8.254;2023-09-18T12:36:50;24.00;99.90
4934;DHT22;2482;49.154;8.254;2023-09-18T12:39:18;24.00;99.90
4934;DHT22;2482;49.154;8.254;2023-09-18T12:41:48;24.00;99.90
4934;DHT22;2482;49.154;8.254;2023-09-18T12:44:16;24.00;99.90
4934;DHT22;2482;49.154;8.254;2023-09-18T12:46:44;24.30;99.90
4934;DHT22;2482;49.154;8.254;2023-09-18T12:49:21;24.50;99.90
4934;DHT22;2482;49.154;8.254;2023-09-18T12:51:59;24.70;99.90
4934;DHT22;2482;49.154;8.254;2023-09-18T12:57:10;24.40;99.90
4934;DHT22;2482;49.154;8.254;2023-09-18T12:59:37;24.50;99.90
4934;DHT22;2482;49.154;8.254;2023-09-18T13:02:06;24.60;99.90
4934;DHT22;2482;49.154;8.254;2023-09-18T13:04:34;24.70;99.90
4934;DHT22;2482;49.154;8.254;2023-09-18T13:07:12;24.90;99.90
4934;DHT22;2482;49.154;8.254;2023-09-18T13:09:41;24.90;99.90
4934;DHT22;2482;49.154;8.254;2023-09-18T13:12:08;24.70;99.90
4934;DHT22;2482;49.154;8.254;2023-09-18T13:14:59;24.70;99.90
4934;DHT22;2482;49.154;8.254;2023-09-18T13:17:39;24.80;99.90
4934;DHT22;2482;49.154;8.254;2023-09-18T13:22:55;24.60;99.90
4934;DHT22;2482;49.154;8.254;2023-09-18T13:25:26;24.30;99.90
4934;DHT22;2482;49.154;8.254;2023-09-18T13:27:55;24.30;99.90
4934;DHT22;2482;49.154;8.254;2023-09-18T13:30:23;24.60;99.90
4934;DHT22;2482;49.154;8.254;2023-09-18T13:32:50;24.80;99.90
4934;DHT22;2482;49.154;8.254;2023-09-18T13:35:18;25.30;99.90
4934;DHT22;2482;49.154;8.254;2023-09-18T13:37:46;25.40;99.90
4934;DHT22;2482;49.154;8.254;2023-09-18T13:40:13;25.20;99.90
4934;DHT22;2482;49.154;8.254;2023-09-18T13:42:40;25.40;99.90
4934;DHT22;2482;49.154;8.254;2023-09-18T13:45:07;25.70;99.90
4934;DHT22;2482;49.154;8.254;2023-09-18T13:47:35;25.30;99.90
4934;DHT22;2482;49.154;8.254;2023-09-18T13:50:04;25.10;99.90
4934;DHT22;2482;49.154;8.254;2023-09-18T13:52:34;25.30;99.90
4934;DHT22;2482;49.154;8.254;2023-09-18T13:55:03;25.50;99.90
4934;DHT22;2482;49.154;8.254;2023-09-18T13:57:33;25.30;99.90
4934;DHT22;2482;49.154;8.254;2023-09-18T14:00:03;25.00;99.90
4934;DHT22;2482;49.154;8.254;2023-09-18T14:02:38;25.10;99.90
4934;DHT22;2482;49.154;8.254;2023-09-18T14:05:06;25.20;99.90
4934;DHT22;2482;49.154;8.254;2023-09-18T14:07:35;25.10;99.90
4934;DHT22;2482;49.154;8.254;2023-09-18T14:10:07;25.20;99.90
4934;DHT22;2482;49.154;8.254;2023-09-18T14:12:37;25.40;99.90
4934;DHT22;2482;49.154;8.254;2023-09-18T14:15:06;25.60;99.90
4934;DHT22;2482;49.154;8.254;2023-09-18T14:17:35;25.70;99.90
4934;DHT22;2482;49.154;8.254;2023-09-18T14:20:04;25.70;99.90
4934;DHT22;2482;49.154;8.254;2023-09-18T14:22:35;25.80;99.90
4934;DHT22;2482;49.154;8.254;2023-09-18T14:25:03;25.80;99.90
4934;DHT22;2482;49.154;8.254;2023-09-18T14:27:33;25.90;99.90
4934;DHT22;2482;49.154;8.254;2023-09-18T14:30:03;25.90;99.90
4934;DHT22;2482;49.154;8.254;2023-09-18T14:32:35;25.90;99.90
4934;DHT22;2482;49.154;8.254;2023-09-18T14:35:04;25.80;99.90
4934;DHT22;2482;49.154;8.254;2023-09-18T14:37:36;25.70;99.90
4934;DHT22;2482;49.154;8.254;2023-09-18T14:40:04;25.50;99.90
4934;DHT22;2482;49.154;8.254;2023-09-18T14:42:31;25.50;99.90
4934;DHT22;2482;49.154;8.254;2023-09-18T14:45:00;25.60;99.90
4934;DHT22;2482;49.154;8.254;2023-09-18T14:47:28;25.60;99.90
4934;DHT22;2482;49.154;8.254;2023-09-18T14:49:56;25.80;99.90
4934;DHT22;2482;49.154;8.254;2023-09-18T14:52:25;25.80;99.90
4934;DHT22;2482;49.154;8.254;2023-09-18T14:54:52;25.90;99.90
4934;DHT22;2482;49.154;8.254;2023-09-18T14:57:19;25.70;99.90
4934;DHT22;2482;49.154;8.254;2023-09-18T14:59:46;25.50;99.90
4934;DHT22;2482;49.154;8.254;2023-09-18T15:02:14;25.50;99.90
4934;DHT22;2482;49.154;8.254;2023-09-18T15:04:46;25.70;99.90
4934;DHT22;2482;49.154;8.254;2023-09-18T15:07:14;25.60;99.90
4934;DHT22;2482;49.154;8.254;2023-09-18T15:09:41;25.90;99.90
4934;DHT22;2482;49.154;8.254;2023-09-18T15:12:08;25.90;99.90
4934;DHT22;2482;49.154;8.254;2023-09-18T15:14:38;25.90;99.90
4934;DHT22;2482;49.154;8.254;2023-09-18T15:17:05;26.00;99.90
4934;DHT22;2482;49.154;8.254;2023-09-18T15:19:34;26.00;99.90
4934;DHT22;2482;49.154;8.254;2023-09-18T15:22:01;25.70;99.90
4934;DHT22;2482;49.154;8.254;2023-09-18T15:24:29;25.60;99.90
4934;DHT22;2482;49.154;8.254;2023-09-18T15:26:56;25.40;99.90
4934;DHT22;2482;49.154;8.254;2023-09-18T15:29:24;25.60;99.90
4934;DHT22;2482;49.154;8.254;2023-09-18T15:31:51;25.60;99.90
4934;DHT22;2482;49.154;8.254;2023-09-18T15:34:18;25.60;99.90
4934;DHT22;2482;49.154;8.254;2023-09-18T15:36:45;25.30;99.90
4934;DHT22;2482;49.154;8.254;2023-09-18T15:39:12;25.30;99.90
4934;DHT22;2482;49.154;8.254;2023-09-18T15:41:39;25.30;99.90
4934;DHT22;2482;49.154;8.254;2023-09-18T15:44:07;25.20;99.90
4934;DHT22;2482;49.154;8.254;2023-09-18T15:46:37;25.10;99.90
4934;DHT22;2482;49.154;8.254;2023-09-18T15:49:04;25.00;99.90
4934;DHT22;2482;49.154;8.254;2023-09-18T15:51:31;25.10;99.90
4934;DHT22;2482;49.154;8.254;2023-09-18T15:53:58;25.00;99.90
4934;DHT22;2482;49.154;8.254;2023-09-18T15:56:25;24.60;99.90
4934;DHT22;2482;49.154;8.254;2023-09-18T15:58:52;24.50;99.90
4934;DHT22;2482;49.154;8.254;2023-09-18T16:01:19;24.50;99.90
4934;DHT22;2482;49.154;8.254;2023-09-18T16:03:47;24.60;99.90
4934;DHT22;2482;49.154;8.254;2023-09-18T16:06:16;24.50;99.90
4934;DHT22;2482;49.154;8.254;2023-09-18T16:08:48;24.50;99.90
4934;DHT22;2482;49.154;8.254;2023-09-18T16:11:16;24.40;99.90
4934;DHT22;2482;49.154;8.254;2023-09-18T16:13:43;24.60;99.90
4934;DHT22;2482;49.154;8.254;2023-09-18T16:16:10;24.50;99.90
4934;DHT22;2482;49.154;8.254;2023-09-18T16:18:38;24.50;99.90
4934;DHT22;2482;49.154;8.254;2023-09-18T16:21:06;24.40;99.90
4934;DHT22;2482;49.154;8.254;2023-09-18T16:23:33;24.20;99.90
4934;DHT22;2482;49.154;8.254;2023-09-18T16:26:00;24.20;99.90